首页
METAR-TAF:

METAR-TAF

机场 :

萨尔布吕肯机场

萨尔布吕肯, 德国

纬度: 49-13N, 经度: 007-07E, 海拔: 322米

当前天气观测

该预报发布于26分钟前的01:50 UTC
风速3节,风向东转东北,在东北东转东南之间变化
温度 11°C
湿度 50%
气压 1027 hPa
能见度10公里或以上
1500米以下无云,无积雨云

METAR: EDDR 070150Z 07003KT 040V110 CAVOK 11/01 Q1027

时间: 04:16 (02:16 UTC)

预报

该预报发布于3小时和16分钟前的23:00 UTC
预报有效从07日的 00点(UTC)到 07日的 24点(UTC)
风速3节,风向多变
能见度10公里或以上
1500米以下无云,无积雨云
成为
从 07日的 06点(UTC)到 07日的 09点(UTC)
风速7节,风向东转东北

TAF: EDDR 062300Z 0700/0724 VRB03KT CAVOK BECMG 0706/0709 06007KT

超过4000个机场的气象观测和天气预报(METAR&TAF报告)。

可查询的气象台以黄色和红色小点在地图上表示。

将鼠标移到小点上方,可查看气象台名称。

然后点击查看天气观测和预报。

如需切换地图:点击带黑十字的绿色按钮放大地图;点击带横线的绿色按钮缩小地图;或者点击绿色箭头查看邻近地区的地图。


METAR-TAF: